createdAt,value
2018-12-17T00:02:09.955Z,7.43
2018-12-17T00:04:38.393Z,5.33
2018-12-17T00:07:06.589Z,6.30
2018-12-17T00:09:34.812Z,3.20
2018-12-17T00:12:03.204Z,4.57
2018-12-17T00:14:31.917Z,5.83
2018-12-17T00:17:00.108Z,4.50
2018-12-17T00:19:28.658Z,3.23
2018-12-17T00:21:56.846Z,4.10
2018-12-17T00:24:25.040Z,4.00
2018-12-17T00:26:53.272Z,3.77
2018-12-17T00:29:21.465Z,8.77
2018-12-17T00:31:49.868Z,5.90
2018-12-17T00:34:18.081Z,13.67
2018-12-17T00:36:46.327Z,8.60
2018-12-17T00:39:14.593Z,3.67
2018-12-17T00:41:42.848Z,4.07
2018-12-17T00:44:11.144Z,3.37
2018-12-17T00:46:39.631Z,2.90
2018-12-17T00:49:07.815Z,3.63
2018-12-17T00:51:36.012Z,3.43
2018-12-17T00:54:04.213Z,3.60
2018-12-17T00:56:32.543Z,4.07
2018-12-17T00:59:00.780Z,3.57
2018-12-17T01:01:28.998Z,2.87
2018-12-17T01:03:57.288Z,8.73
2018-12-17T01:06:25.503Z,8.40
2018-12-17T01:08:53.776Z,3.87
2018-12-17T01:11:22.093Z,5.43
2018-12-17T01:13:53.266Z,7.13
2018-12-17T01:16:21.755Z,3.20
2018-12-17T01:18:50.086Z,3.10
2018-12-17T01:21:18.996Z,2.33
2018-12-17T01:23:47.560Z,3.27
2018-12-17T01:26:16.152Z,2.80
2018-12-17T01:28:44.631Z,2.63
2018-12-17T01:31:12.836Z,2.53
2018-12-17T01:33:41.049Z,2.63
2018-12-17T01:36:09.456Z,2.50
2018-12-17T01:38:37.677Z,2.73
2018-12-17T01:41:06.390Z,3.37
2018-12-17T01:43:34.676Z,2.63
2018-12-17T01:46:02.964Z,12.63
2018-12-17T01:48:31.208Z,6.23
2018-12-17T01:50:59.404Z,6.10
2018-12-17T01:53:27.623Z,3.10
2018-12-17T01:55:56.028Z,4.60
2018-12-17T01:58:29.155Z,2.90
2018-12-17T02:00:54.424Z,3.20
2018-12-17T02:03:22.660Z,2.30
2018-12-17T02:05:50.852Z,1.70
2018-12-17T02:08:19.047Z,2.40
2018-12-17T02:10:47.360Z,2.20
2018-12-17T02:13:15.601Z,2.43
2018-12-17T02:15:43.787Z,2.40
2018-12-17T02:18:12.016Z,5.20
2018-12-17T02:20:40.220Z,3.60
2018-12-17T02:23:08.415Z,5.53
2018-12-17T02:25:36.728Z,2.43
2018-12-17T02:28:05.093Z,2.10
2018-12-17T02:30:33.290Z,3.73
2018-12-17T02:33:01.595Z,3.60
2018-12-17T02:35:29.872Z,3.37
2018-12-17T02:37:58.158Z,2.70
2018-12-17T02:40:26.525Z,2.63
2018-12-17T02:42:54.720Z,2.37
2018-12-17T02:45:22.928Z,2.60
2018-12-17T02:47:51.240Z,2.40
2018-12-17T02:50:19.446Z,2.80
2018-12-17T02:52:47.732Z,4.43
2018-12-17T02:55:15.944Z,3.20
2018-12-17T02:57:44.206Z,3.67
2018-12-17T03:00:12.682Z,2.80
2018-12-17T03:02:41.051Z,4.90
2018-12-17T03:05:09.440Z,4.20
2018-12-17T03:07:37.747Z,2.90
2018-12-17T03:10:06.493Z,2.67
2018-12-17T03:12:34.768Z,2.20
2018-12-17T03:15:02.965Z,1.90
2018-12-17T03:17:31.173Z,2.57
2018-12-17T03:19:59.375Z,2.43
2018-12-17T03:22:27.573Z,2.80
2018-12-17T03:24:56.117Z,2.63
2018-12-17T03:27:24.317Z,3.37
2018-12-17T03:29:52.521Z,2.67
2018-12-17T03:32:20.726Z,2.07
2018-12-17T03:34:48.994Z,2.23
2018-12-17T03:37:17.186Z,3.17
2018-12-17T03:39:45.492Z,4.70
2018-12-17T03:42:13.711Z,4.00
2018-12-17T03:44:42.394Z,2.87
2018-12-17T03:47:10.711Z,2.53
2018-12-17T03:49:39.017Z,1.63
2018-12-17T03:52:07.311Z,2.80
2018-12-17T03:54:35.596Z,2.40
2018-12-17T03:57:03.780Z,2.23
2018-12-17T03:59:31.981Z,2.17
2018-12-17T04:02:00.207Z,1.90
2018-12-17T04:04:28.468Z,1.77
2018-12-17T04:06:56.688Z,5.10
2018-12-17T04:09:24.903Z,1.63
2018-12-17T04:11:53.186Z,3.50
2018-12-17T04:14:21.477Z,6.10
2018-12-17T04:16:49.772Z,4.30
2018-12-17T04:19:17.979Z,3.00
2018-12-17T04:21:46.271Z,3.20
2018-12-17T04:24:14.831Z,2.10
2018-12-17T04:26:43.041Z,5.23
2018-12-17T04:29:11.314Z,4.33
2018-12-17T04:31:40.002Z,5.77
2018-12-17T04:34:08.273Z,3.90
2018-12-17T04:36:36.549Z,4.10
2018-12-17T04:39:06.496Z,3.83
2018-12-17T04:41:34.762Z,4.63
2018-12-17T04:44:03.052Z,4.60
2018-12-17T04:46:31.266Z,3.57
2018-12-17T04:48:59.577Z,3.93
2018-12-17T04:51:28.035Z,4.07
2018-12-17T04:53:56.248Z,4.60
2018-12-17T04:56:24.539Z,4.17
2018-12-17T04:58:52.741Z,2.40
2018-12-17T05:01:21.041Z,3.80
2018-12-17T05:03:56.004Z,3.20
2018-12-17T05:06:24.220Z,4.17
2018-12-17T05:08:52.416Z,3.07
2018-12-17T05:11:20.620Z,3.00
2018-12-17T05:13:48.993Z,4.20
2018-12-17T05:16:17.197Z,6.00
2018-12-17T05:18:45.481Z,3.57
2018-12-17T05:21:13.722Z,4.30
2018-12-17T05:23:41.912Z,4.00
2018-12-17T05:26:10.113Z,4.73
2018-12-17T05:28:38.329Z,8.20
2018-12-17T05:31:06.606Z,7.77
2018-12-17T05:33:34.882Z,5.60
2018-12-17T05:36:03.492Z,12.67
2018-12-17T05:38:31.694Z,6.37
2018-12-17T05:40:59.884Z,3.37
2018-12-17T05:43:28.097Z,4.03
2018-12-17T05:45:56.398Z,3.23
2018-12-17T05:48:24.615Z,3.87
2018-12-17T05:50:52.945Z,4.50
2018-12-17T05:53:21.148Z,4.37
2018-12-17T05:55:49.374Z,4.23
2018-12-17T05:58:17.703Z,8.07
2018-12-17T06:00:46.027Z,4.13
2018-12-17T06:03:14.252Z,6.30
2018-12-17T06:05:42.580Z,4.00
2018-12-17T06:08:12.877Z,3.50
2018-12-17T06:10:41.116Z,3.70
2018-12-17T06:13:09.349Z,14.80
2018-12-17T06:15:37.576Z,10.27
2018-12-17T06:18:05.789Z,5.80
2018-12-17T06:20:34.205Z,4.37
2018-12-17T06:23:02.450Z,4.60
2018-12-17T06:25:30.651Z,4.13
2018-12-17T06:27:58.967Z,2.83
2018-12-17T06:30:27.172Z,3.53
2018-12-17T06:32:55.365Z,3.23
2018-12-17T06:35:23.602Z,3.80
2018-12-17T06:37:52.055Z,4.57
2018-12-17T06:40:20.284Z,2.73
2018-12-17T06:42:48.535Z,2.67
2018-12-17T06:45:16.735Z,5.77
2018-12-17T06:47:44.960Z,4.40
2018-12-17T06:50:13.304Z,3.30
2018-12-17T06:52:41.533Z,2.53
2018-12-17T06:55:09.845Z,3.70
2018-12-17T06:57:38.164Z,5.60
2018-12-17T07:00:06.671Z,22.60
2018-12-17T07:02:34.884Z,8.20
2018-12-17T07:05:03.535Z,3.93
2018-12-17T07:07:31.828Z,3.03
2018-12-17T07:10:00.096Z,3.50
2018-12-17T07:12:28.336Z,3.50
2018-12-17T07:14:56.547Z,3.50
2018-12-17T07:17:24.759Z,3.37
2018-12-17T07:19:54.187Z,3.97
2018-12-17T07:22:22.593Z,3.40
2018-12-17T07:24:50.811Z,4.33
2018-12-17T07:27:19.185Z,3.93
2018-12-17T07:29:49.873Z,3.00
2018-12-17T07:32:18.657Z,3.03
2018-12-17T07:34:47.230Z,2.37
2018-12-17T07:37:15.461Z,2.63
2018-12-17T07:39:44.016Z,1.83
2018-12-17T07:42:12.662Z,6.13
2018-12-17T07:44:40.864Z,2.33
2018-12-17T07:47:09.077Z,3.47
2018-12-17T07:49:37.333Z,4.70
2018-12-17T07:52:05.628Z,4.43
2018-12-17T07:54:33.837Z,4.43
2018-12-17T07:57:02.125Z,4.20
2018-12-17T07:59:30.353Z,6.23
2018-12-17T08:01:59.185Z,7.17
2018-12-17T08:04:27.456Z,5.20
2018-12-17T08:06:55.694Z,8.67
2018-12-17T08:09:24.084Z,6.67
2018-12-17T08:11:52.548Z,3.57
2018-12-17T08:14:20.763Z,2.67
2018-12-17T08:16:49.055Z,3.97
2018-12-17T08:19:17.297Z,3.17
2018-12-17T08:21:45.604Z,4.00
2018-12-17T08:24:13.827Z,4.50
2018-12-17T08:26:42.462Z,5.97
2018-12-17T08:29:10.857Z,6.67
2018-12-17T08:31:39.082Z,8.43
2018-12-17T08:34:07.390Z,7.47
2018-12-17T08:36:35.629Z,7.20
2018-12-17T08:39:06.599Z,9.90
2018-12-17T08:41:34.843Z,7.93
2018-12-17T08:44:03.069Z,9.63
2018-12-17T08:46:31.285Z,9.40
2018-12-17T08:48:59.531Z,9.77
2018-12-17T08:51:27.946Z,9.73
2018-12-17T08:53:56.200Z,9.03
2018-12-17T08:56:24.552Z,9.13
2018-12-17T08:58:52.768Z,9.87
2018-12-17T09:01:20.982Z,8.80
2018-12-17T09:03:49.241Z,10.13
2018-12-17T09:06:17.872Z,10.20
2018-12-17T09:08:46.171Z,9.60
2018-12-17T09:11:14.665Z,10.20
2018-12-17T09:13:42.863Z,8.00
2018-12-17T09:16:11.086Z,8.13
2018-12-17T09:18:39.341Z,8.00
2018-12-17T09:21:07.572Z,8.03
2018-12-17T09:23:35.782Z,8.27
2018-12-17T09:26:04.311Z,9.57
2018-12-17T09:28:32.522Z,8.40
2018-12-17T09:31:00.822Z,8.40
2018-12-17T09:33:29.212Z,8.10
2018-12-17T09:35:57.538Z,7.60
2018-12-17T09:38:25.839Z,8.67
2018-12-17T09:40:54.077Z,9.53
2018-12-17T09:43:22.304Z,8.87
2018-12-17T09:45:50.512Z,9.57
2018-12-17T09:48:18.845Z,9.50
2018-12-17T09:50:47.060Z,8.23
2018-12-17T09:53:15.292Z,8.37
2018-12-17T09:55:43.509Z,9.20
2018-12-17T09:58:11.734Z,7.70
2018-12-17T10:00:39.950Z,9.27
2018-12-17T10:03:08.273Z,9.20
2018-12-17T10:05:36.537Z,9.23
2018-12-17T10:08:04.866Z,7.30
2018-12-17T10:10:33.097Z,7.40
2018-12-17T10:13:01.313Z,8.80
2018-12-17T10:15:29.549Z,12.23
2018-12-17T10:17:57.829Z,15.67
2018-12-17T10:20:26.054Z,13.93
2018-12-17T10:22:54.272Z,22.37
2018-12-17T10:25:22.533Z,23.73
2018-12-17T10:27:50.868Z,17.27
2018-12-17T10:30:19.182Z,14.10
2018-12-17T10:32:47.432Z,15.00
2018-12-17T10:35:15.801Z,11.83
2018-12-17T10:37:44.057Z,9.20
2018-12-17T10:40:12.598Z,9.27
2018-12-17T10:42:40.821Z,10.10
2018-12-17T10:45:09.240Z,9.60
2018-12-17T10:47:37.506Z,8.47
2018-12-17T10:50:06.525Z,10.57
2018-12-17T10:52:34.760Z,8.83
2018-12-17T10:55:03.737Z,9.40
2018-12-17T10:57:31.965Z,12.50
2018-12-17T11:00:00.176Z,13.13
2018-12-17T11:02:33.961Z,13.83
2018-12-17T11:05:21.423Z,13.80
2018-12-17T11:07:49.769Z,12.20
2018-12-17T11:10:18.041Z,46.47
2018-12-17T11:12:46.477Z,17.10
2018-12-17T11:15:14.814Z,14.53
2018-12-17T11:17:44.686Z,13.50
2018-12-17T11:20:13.145Z,13.90
2018-12-17T11:22:41.401Z,13.40
2018-12-17T11:25:09.652Z,13.70
2018-12-17T11:27:37.916Z,14.27
2018-12-17T11:30:08.999Z,14.13
2018-12-17T11:32:39.303Z,13.20
2018-12-17T11:35:07.639Z,13.17
2018-12-17T11:37:35.953Z,16.00
2018-12-17T11:40:04.924Z,14.40
2018-12-17T11:42:33.151Z,13.23
2018-12-17T11:45:01.471Z,20.13
2018-12-17T11:47:29.680Z,20.07
2018-12-17T11:49:57.891Z,30.50
2018-12-17T11:52:26.200Z,34.43
2018-12-17T11:54:54.399Z,33.23
2018-12-17T11:58:25.660Z,34.10
2018-12-17T12:00:59.328Z,31.87
2018-12-17T12:03:27.663Z,29.50
2018-12-17T12:05:55.876Z,12.23
2018-12-17T12:08:24.090Z,12.40
2018-12-17T12:10:52.500Z,14.70
2018-12-17T12:13:20.705Z,12.93
2018-12-17T12:15:49.001Z,15.90
2018-12-17T12:18:17.230Z,26.97
2018-12-17T12:20:45.439Z,25.47
2018-12-17T12:23:13.651Z,27.13
2018-12-17T12:25:41.961Z,26.43
2018-12-17T12:28:10.204Z,12.80
2018-12-17T12:30:38.428Z,20.07
2018-12-17T12:33:06.649Z,26.97
2018-12-17T12:35:35.039Z,64.83
2018-12-17T12:38:03.337Z,19.40
2018-12-17T12:40:33.172Z,9.73
2018-12-17T12:43:01.533Z,14.27
2018-12-17T12:45:29.750Z,34.10
2018-12-17T12:47:57.984Z,24.33
2018-12-17T12:50:26.292Z,28.77
2018-12-17T12:52:54.520Z,21.10
2018-12-17T12:55:22.772Z,17.20
2018-12-17T12:57:50.997Z,15.10
2018-12-17T13:00:19.345Z,19.20
2018-12-17T13:02:47.580Z,15.37
2018-12-17T13:05:15.801Z,32.03
2018-12-17T13:07:44.013Z,25.20
2018-12-17T13:10:13.305Z,19.17
2018-12-17T13:12:41.681Z,24.40
2018-12-17T13:15:10.373Z,22.13
2018-12-17T13:17:39.017Z,8.73
2018-12-17T13:20:08.851Z,6.50
2018-12-17T13:22:37.177Z,6.23
2018-12-17T13:25:08.113Z,5.70
2018-12-17T13:27:36.313Z,6.10
2018-12-17T13:30:06.866Z,4.90
2018-12-17T13:32:35.440Z,4.17
2018-12-17T13:35:03.932Z,4.20
2018-12-17T13:37:32.213Z,4.23
2018-12-17T13:40:00.430Z,3.93
2018-12-17T13:42:28.637Z,3.73
2018-12-17T13:44:56.928Z,4.13
2018-12-17T13:47:25.268Z,4.20
2018-12-17T13:49:53.490Z,4.53
2018-12-17T13:52:26.982Z,4.67
2018-12-17T13:54:55.197Z,4.97
2018-12-17T13:57:23.388Z,5.40
2018-12-17T13:59:51.638Z,6.83
2018-12-17T14:02:19.841Z,4.50
2018-12-17T14:04:48.056Z,5.27
2018-12-17T14:07:16.301Z,6.77
2018-12-17T14:09:49.960Z,6.60
2018-12-17T14:12:18.493Z,5.07
2018-12-17T14:14:46.712Z,4.17
2018-12-17T14:17:20.373Z,5.53
2018-12-17T14:19:54.065Z,5.80
2018-12-17T14:22:22.320Z,5.03
2018-12-17T14:24:50.558Z,4.50
2018-12-17T14:27:18.773Z,4.93
2018-12-17T14:29:47.101Z,4.83
2018-12-17T14:32:15.308Z,4.77
2018-12-17T14:34:43.517Z,5.30
2018-12-17T14:37:11.736Z,4.40
2018-12-17T14:39:39.955Z,5.13
2018-12-17T14:42:08.187Z,5.10
2018-12-17T14:44:36.544Z,3.60
2018-12-17T14:47:04.965Z,6.37
2018-12-17T14:49:33.181Z,15.70
2018-12-17T14:52:01.612Z,13.40
2018-12-17T14:54:29.880Z,6.80
2018-12-17T14:56:58.095Z,7.63
2018-12-17T14:59:26.448Z,3.80
2018-12-17T15:01:54.769Z,8.23
2018-12-17T15:04:23.004Z,3.80
2018-12-17T15:06:51.233Z,4.50
2018-12-17T15:09:19.452Z,3.30
2018-12-17T15:11:47.776Z,2.93
2018-12-17T15:14:16.070Z,3.20
2018-12-17T15:16:44.281Z,2.70
2018-12-17T15:19:13.901Z,2.73
2018-12-17T15:21:42.517Z,2.60
2018-12-17T15:24:10.757Z,2.70
2018-12-17T15:26:39.051Z,3.23
2018-12-17T15:29:07.380Z,3.47
2018-12-17T15:31:42.833Z,2.90
2018-12-17T15:34:05.900Z,3.07
2018-12-17T15:36:34.173Z,4.30
2018-12-17T15:39:02.784Z,3.83
2018-12-17T15:41:31.045Z,2.40
2018-12-17T15:43:59.315Z,3.77
2018-12-17T15:46:27.607Z,8.97
2018-12-17T15:48:55.826Z,9.30
2018-12-17T15:51:24.062Z,10.63
2018-12-17T15:53:52.287Z,8.40
2018-12-17T15:56:20.496Z,10.70
2018-12-17T15:58:48.764Z,6.33
2018-12-17T16:01:17.054Z,5.13
2018-12-17T16:03:45.286Z,5.73
2018-12-17T16:06:13.532Z,9.40
2018-12-17T16:08:41.781Z,7.53
2018-12-17T16:11:10.060Z,26.53
2018-12-17T16:13:38.415Z,12.60
2018-12-17T16:16:06.646Z,7.77
2018-12-17T16:18:34.866Z,11.53
2018-12-17T16:21:03.096Z,7.27
2018-12-17T16:23:31.296Z,3.80
2018-12-17T16:25:59.525Z,4.13
2018-12-17T16:28:27.761Z,7.20
2018-12-17T16:30:56.019Z,7.80
2018-12-17T16:33:29.889Z,6.43
2018-12-17T16:35:54.596Z,16.73
2018-12-17T16:38:22.837Z,4.90
2018-12-17T16:40:51.057Z,4.93
2018-12-17T16:43:19.316Z,4.50
2018-12-17T16:45:47.531Z,4.13
2018-12-17T16:48:15.772Z,4.90
2018-12-17T16:50:44.008Z,5.43
2018-12-17T16:53:12.249Z,5.80
2018-12-17T16:55:40.473Z,17.93
2018-12-17T16:58:08.837Z,12.37
2018-12-17T17:00:37.242Z,30.33
2018-12-17T17:03:05.469Z,14.03
2018-12-17T17:05:33.692Z,5.30
2018-12-17T17:08:01.914Z,11.10
2018-12-17T17:10:30.121Z,7.50
2018-12-17T17:12:58.430Z,7.53
2018-12-17T17:15:26.739Z,16.30
2018-12-17T17:17:54.963Z,12.93
2018-12-17T17:20:23.290Z,30.83
2018-12-17T17:22:51.501Z,13.10
2018-12-17T17:25:19.735Z,11.43
2018-12-17T17:27:48.264Z,10.83
2018-12-17T17:30:16.822Z,15.23
2018-12-17T17:32:45.066Z,18.07
2018-12-17T17:35:13.297Z,9.03
2018-12-17T17:37:41.522Z,6.37
2018-12-17T17:40:09.832Z,4.30
2018-12-17T17:42:38.146Z,4.90
2018-12-17T17:45:06.815Z,3.30
2018-12-17T17:47:35.114Z,4.63
2018-12-17T17:50:03.726Z,4.40
2018-12-17T17:52:33.837Z,5.33
2018-12-17T17:55:02.061Z,3.30
2018-12-17T17:57:30.324Z,5.10
2018-12-17T17:59:58.551Z,5.40
2018-12-17T18:02:26.777Z,7.90
2018-12-17T18:04:55.052Z,3.37
2018-12-17T18:07:23.377Z,3.60
2018-12-17T18:09:51.719Z,4.70
2018-12-17T18:12:19.962Z,3.53
2018-12-17T18:14:48.173Z,2.80
2018-12-17T18:17:16.437Z,3.20
2018-12-17T18:19:44.778Z,3.53
2018-12-17T18:22:13.069Z,3.90
2018-12-17T18:24:41.377Z,3.23
2018-12-17T18:27:09.612Z,4.50
2018-12-17T18:29:38.016Z,4.10
2018-12-17T18:32:06.240Z,7.83
2018-12-17T18:34:34.552Z,6.33
2018-12-17T18:37:02.880Z,4.90
2018-12-17T18:39:31.113Z,3.00
2018-12-17T18:41:59.426Z,2.30
2018-12-17T18:44:27.779Z,2.00
2018-12-17T18:46:55.985Z,1.80
2018-12-17T18:49:24.306Z,3.07
2018-12-17T18:51:52.522Z,2.17
2018-12-17T18:54:20.860Z,2.90
2018-12-17T18:56:49.191Z,2.00
2018-12-17T18:59:17.434Z,2.60
2018-12-17T19:01:45.668Z,2.20
2018-12-17T19:04:14.085Z,3.40
2018-12-17T19:06:42.320Z,2.90
2018-12-17T19:09:10.902Z,3.60
2018-12-17T19:11:39.149Z,5.80
2018-12-17T19:14:07.389Z,4.13
2018-12-17T19:16:35.795Z,5.90
2018-12-17T19:19:04.199Z,3.40
2018-12-17T19:21:32.878Z,2.87
2018-12-17T19:24:01.085Z,3.43
2018-12-17T19:26:29.342Z,4.77
2018-12-17T19:28:57.563Z,4.03
2018-12-17T19:31:25.776Z,3.30
2018-12-17T19:33:54.088Z,3.67
2018-12-17T19:36:22.312Z,3.93
2018-12-17T19:38:50.625Z,2.20
2018-12-17T19:41:18.886Z,2.00
2018-12-17T19:43:47.642Z,3.00
2018-12-17T19:46:15.948Z,3.40
2018-12-17T19:48:44.210Z,3.37
2018-12-17T19:51:12.550Z,4.10
2018-12-17T19:53:40.804Z,2.97
2018-12-17T19:56:09.051Z,2.70
2018-12-17T19:58:37.368Z,3.87
2018-12-17T20:01:05.777Z,3.33
2018-12-17T20:03:34.328Z,2.63
2018-12-17T20:06:02.619Z,2.80
2018-12-17T20:08:30.863Z,2.77
2018-12-17T20:10:59.122Z,2.10
2018-12-17T20:13:27.366Z,3.10
2018-12-17T20:15:55.611Z,2.10
2018-12-17T20:18:23.853Z,4.07
2018-12-17T20:20:52.089Z,7.00
2018-12-17T20:23:20.387Z,6.00
2018-12-17T20:25:48.622Z,7.90
2018-12-17T20:28:16.916Z,2.30
2018-12-17T20:30:45.138Z,3.40
2018-12-17T20:33:13.364Z,2.40
2018-12-17T20:35:41.585Z,12.00
2018-12-17T20:38:09.822Z,7.50
2018-12-17T20:40:38.141Z,5.30
2018-12-17T20:43:06.354Z,3.30
2018-12-17T20:45:34.602Z,8.00
2018-12-17T20:48:02.824Z,2.70
2018-12-17T20:50:31.137Z,3.80
2018-12-17T20:52:59.365Z,8.40
2018-12-17T20:55:30.768Z,21.00
2018-12-17T20:57:58.917Z,6.00
2018-12-17T21:00:27.341Z,4.20
2018-12-17T21:03:00.302Z,5.93
2018-12-17T21:05:25.799Z,3.10
2018-12-17T21:07:54.024Z,6.37
2018-12-17T21:10:22.249Z,4.43
2018-12-17T21:12:50.465Z,4.20
2018-12-17T21:15:18.692Z,5.47
2018-12-17T21:17:46.916Z,5.33
2018-12-17T21:20:15.213Z,6.60
2018-12-17T21:22:43.482Z,6.30
2018-12-17T21:25:11.804Z,12.93
2018-12-17T21:27:40.196Z,7.90
2018-12-17T21:30:09.617Z,5.67
2018-12-17T21:32:37.942Z,5.57
2018-12-17T21:35:07.073Z,4.27
2018-12-17T21:37:35.390Z,7.00
2018-12-17T21:40:03.844Z,6.67
2018-12-17T21:42:32.105Z,8.50
2018-12-17T21:45:00.360Z,8.80
2018-12-17T21:47:28.665Z,7.20
2018-12-17T21:49:56.882Z,8.87
2018-12-17T21:52:25.581Z,6.97
2018-12-17T21:54:53.942Z,6.63
2018-12-17T21:57:22.177Z,6.70
2018-12-17T21:59:50.397Z,7.07
2018-12-17T22:02:18.727Z,8.43
2018-12-17T22:04:46.937Z,8.50
2018-12-17T22:07:15.329Z,6.03
2018-12-17T22:09:43.542Z,3.93
2018-12-17T22:12:11.877Z,4.77
2018-12-17T22:14:40.088Z,4.63
2018-12-17T22:17:08.393Z,4.23
2018-12-17T22:19:36.625Z,4.60
2018-12-17T22:22:04.943Z,2.90
2018-12-17T22:24:33.161Z,4.43
2018-12-17T22:27:01.474Z,4.67
2018-12-17T22:29:29.810Z,2.37
2018-12-17T22:31:58.099Z,4.10
2018-12-17T22:34:26.302Z,6.40
2018-12-17T22:36:54.624Z,11.57
2018-12-17T22:39:23.133Z,8.70
2018-12-17T22:41:51.352Z,7.07
2018-12-17T22:44:19.615Z,8.90
2018-12-17T22:46:47.921Z,8.80
2018-12-17T22:49:16.149Z,25.80
2018-12-17T22:51:44.372Z,15.00
2018-12-17T22:54:12.611Z,11.70
2018-12-17T22:56:40.837Z,8.10
2018-12-17T22:59:09.059Z,6.73
2018-12-17T23:01:37.381Z,7.00
2018-12-17T23:04:05.694Z,4.60
2018-12-17T23:06:33.989Z,2.43
2018-12-17T23:09:05.371Z,4.57
2018-12-17T23:11:50.610Z,6.10
2018-12-17T23:14:30.233Z,3.73
2018-12-17T23:17:09.580Z,2.90
2018-12-17T23:19:42.397Z,3.70
2018-12-17T23:22:11.189Z,2.70
2018-12-17T23:24:39.553Z,3.13
2018-12-17T23:27:07.993Z,4.50
2018-12-17T23:29:36.433Z,5.47
2018-12-17T23:32:04.844Z,6.60
2018-12-17T23:34:33.236Z,4.80
2018-12-17T23:37:01.507Z,4.50
2018-12-17T23:39:29.717Z,4.90
2018-12-17T23:41:57.966Z,3.60
2018-12-17T23:44:26.302Z,2.80
2018-12-17T23:46:54.501Z,1.90
2018-12-17T23:49:22.777Z,2.50
2018-12-17T23:51:51.055Z,7.63
2018-12-17T23:54:19.257Z,5.83
2018-12-17T23:56:47.449Z,2.30
2018-12-17T23:59:15.764Z,3.67
